Aérodrome :
LOGIN :

S'inscrire | Disclaimer

   EN    FR    IT 

 










Légende :    VFR   VFR Marginal   IFR   IFR Intensif   IFR Très Intensif
Visi : 
Plafond : 
>= 8 km
>= 3000ft
5 à 8 km
1000 à 3000 ft
1500m à 5 km
500 à 1000 ft
800 à 1500m
200 à 500 ft
< 800m
< 200 ft
Symboles :   Orages  Brouillard  Fortes neiges  Fortes précipitations  Vent > 20 kt
SIGMETs :   Divers  Orages  Givrage  Turbulence  Onde Orograph.  Cendres Volcan.






- Altitude de l'aérodrome : 323 ft
- Code IATA : KUO


EFKU - Kuopio

DERNIER METAR :
  • 031950Z AUTO 29013KT 250V310 9999 -SN BKN018 OVC056 M01/M04 Q0989

METARs EXPIRÉS :
  • 031920Z AUTO 29013KT 9999 -SN BKN018 OVC058 M01/M05 Q0988
  • 031850Z AUTO 29014KT 9999 -SN OVC016 M01/M04 Q0987
  • 031820Z AUTO 29013KT 9999 -SN OVC015 M01/M04 Q0987
  • 031750Z AUTO 29013KT 260V320 9999 -SN OVC015 M01/M03 Q0986
  • 031720Z AUTO 30014KT 9999 -SN OVC015 M01/M03 Q0985

TAF TAF EFKU
Valide du 03 à 18h jusqu'au 04 à 18h UTC


031726Z 0318/0418 26010KT 9999 BKN030
TEMPO 0318/0320 BKN013
TEMPO 0411/0418 1500 -SHSNRA FEW030CB



MET'MAP, la Météo Aéronautique d'un coup d'oeil ! - Copyright ORBIFLY Décembre 2007 - Disclaimer

ORBIFLY MET'MAP TEAM :

Programmation & Développement : Alexandra Zaïnal
Sur une idée originale de : Baudouin d'Aumeries
Assistance à la programmation : Marc-Olivier Méhu
Soutien technique & logistique : Manuel Goepfert

Contact : metmap@orbifly.com




SOURCES & CREDITS :

   NOAA